sensor_id;sensor_type;location;lat;lon;timestamp;P1;durP1;ratioP1;P2;durP2;ratioP2
1677;SDS011;6034;46.864;15.216;2023-07-31T04:35:51;2.93;;;1.80;;
1677;SDS011;6034;46.864;15.216;2023-07-31T04:38:19;3.23;;;1.63;;
1677;SDS011;6034;46.864;15.216;2023-07-31T04:40:55;2.50;;;2.10;;
1677;SDS011;6034;46.864;15.216;2023-07-31T04:43:22;3.33;;;2.10;;
1677;SDS011;6034;46.864;15.216;2023-07-31T04:45:49;2.50;;;2.07;;
1677;SDS011;6034;46.864;15.216;2023-07-31T04:48:16;3.00;;;2.10;;
1677;SDS011;6034;46.864;15.216;2023-07-31T04:50:44;7.20;;;1.93;;
1677;SDS011;6034;46.864;15.216;2023-07-31T04:53:13;3.53;;;2.20;;
1677;SDS011;6034;46.864;15.216;2023-07-31T04:55:41;12.00;;;3.97;;
1677;SDS011;6034;46.864;15.216;2023-07-31T04:58:08;3.33;;;1.90;;
1677;SDS011;6034;46.864;15.216;2023-07-31T05:00:35;3.13;;;2.23;;
1677;SDS011;6034;46.864;15.216;2023-07-31T05:03:06;3.10;;;1.80;;
1677;SDS011;6034;46.864;15.216;2023-07-31T05:05:36;4.57;;;2.43;;
1677;SDS011;6034;46.864;15.216;2023-07-31T05:08:04;2.37;;;1.80;;
1677;SDS011;6034;46.864;15.216;2023-07-31T05:10:33;2.83;;;2.17;;
1677;SDS011;6034;46.864;15.216;2023-07-31T05:13:04;3.13;;;1.80;;
1677;SDS011;6034;46.864;15.216;2023-07-31T05:15:32;2.63;;;1.53;;
1677;SDS011;6034;46.864;15.216;2023-07-31T05:18:00;2.83;;;1.73;;
1677;SDS011;6034;46.864;15.216;2023-07-31T05:20:27;3.07;;;2.20;;
1677;SDS011;6034;46.864;15.216;2023-07-31T05:22:58;2.30;;;1.60;;
1677;SDS011;6034;46.864;15.216;2023-07-31T05:25:25;3.03;;;1.53;;
1677;SDS011;6034;46.864;15.216;2023-07-31T05:27:54;3.47;;;2.30;;
1677;SDS011;6034;46.864;15.216;2023-07-31T05:30:22;2.97;;;1.93;;
1677;SDS011;6034;46.864;15.216;2023-07-31T05:32:49;4.57;;;2.30;;
1677;SDS011;6034;46.864;15.216;2023-07-31T05:35:16;2.83;;;2.00;;
1677;SDS011;6034;46.864;15.216;2023-07-31T05:37:44;3.67;;;1.97;;
1677;SDS011;6034;46.864;15.216;2023-07-31T05:40:11;3.30;;;1.80;;
1677;SDS011;6034;46.864;15.216;2023-07-31T05:42:38;2.60;;;2.03;;
1677;SDS011;6034;46.864;15.216;2023-07-31T05:45:08;3.90;;;1.80;;
1677;SDS011;6034;46.864;15.216;2023-07-31T05:47:36;2.10;;;1.67;;
1677;SDS011;6034;46.864;15.216;2023-07-31T05:50:03;3.80;;;2.60;;
1677;SDS011;6034;46.864;15.216;2023-07-31T05:52:31;2.63;;;1.80;;
1677;SDS011;6034;46.864;15.216;2023-07-31T05:54:58;6.47;;;2.20;;
1677;SDS011;6034;46.864;15.216;2023-07-31T05:57:25;5.00;;;2.70;;
1677;SDS011;6034;46.864;15.216;2023-07-31T05:59:52;2.80;;;1.97;;
1677;SDS011;6034;46.864;15.216;2023-07-31T06:02:22;3.00;;;1.80;;
1677;SDS011;6034;46.864;15.216;2023-07-31T06:04:49;2.47;;;1.77;;
1677;SDS011;6034;46.864;15.216;2023-07-31T06:07:17;3.13;;;1.90;;
1677;SDS011;6034;46.864;15.216;2023-07-31T06:09:44;3.30;;;2.03;;
1677;SDS011;6034;46.864;15.216;2023-07-31T06:12:11;3.00;;;2.10;;
1677;SDS011;6034;46.864;15.216;2023-07-31T06:14:39;4.03;;;2.10;;
1677;SDS011;6034;46.864;15.216;2023-07-31T06:17:06;4.60;;;2.90;;
1677;SDS011;6034;46.864;15.216;2023-07-31T06:19:35;3.77;;;2.20;;
1677;SDS011;6034;46.864;15.216;2023-07-31T06:22:02;4.23;;;2.60;;
1677;SDS011;6034;46.864;15.216;2023-07-31T06:24:30;2.80;;;2.17;;
1677;SDS011;6034;46.864;15.216;2023-07-31T06:26:57;3.53;;;2.20;;
1677;SDS011;6034;46.864;15.216;2023-07-31T06:29:24;4.30;;;2.20;;
1677;SDS011;6034;46.864;15.216;2023-07-31T06:31:51;3.97;;;2.30;;
1677;SDS011;6034;46.864;15.216;2023-07-31T06:34:19;3.57;;;2.53;;
1677;SDS011;6034;46.864;15.216;2023-07-31T06:36:47;3.13;;;2.60;;
1677;SDS011;6034;46.864;15.216;2023-07-31T06:39:14;3.40;;;2.73;;
1677;SDS011;6034;46.864;15.216;2023-07-31T06:41:42;3.00;;;2.20;;
1677;SDS011;6034;46.864;15.216;2023-07-31T06:44:12;3.07;;;2.77;;
1677;SDS011;6034;46.864;15.216;2023-07-31T06:46:39;3.33;;;2.47;;
1677;SDS011;6034;46.864;15.216;2023-07-31T06:49:10;3.10;;;2.50;;
1677;SDS011;6034;46.864;15.216;2023-07-31T06:51:40;3.23;;;2.33;;
1677;SDS011;6034;46.864;15.216;2023-07-31T06:54:09;3.23;;;2.33;;
1677;SDS011;6034;46.864;15.216;2023-07-31T06:56:36;3.00;;;2.40;;
1677;SDS011;6034;46.864;15.216;2023-07-31T06:59:03;3.10;;;2.43;;
1677;SDS011;6034;46.864;15.216;2023-07-31T07:01:31;2.83;;;2.20;;
1677;SDS011;6034;46.864;15.216;2023-07-31T07:03:58;4.60;;;2.33;;
1677;SDS011;6034;46.864;15.216;2023-07-31T07:06:25;2.97;;;2.00;;
1677;SDS011;6034;46.864;15.216;2023-07-31T07:08:52;2.80;;;1.90;;
1677;SDS011;6034;46.864;15.216;2023-07-31T07:11:21;2.50;;;1.73;;
1677;SDS011;6034;46.864;15.216;2023-07-31T07:13:49;3.20;;;2.30;;
1677;SDS011;6034;46.864;15.216;2023-07-31T07:16:16;4.30;;;1.73;;
1677;SDS011;6034;46.864;15.216;2023-07-31T07:18:43;3.27;;;1.90;;
1677;SDS011;6034;46.864;15.216;2023-07-31T07:21:10;2.60;;;1.87;;
1677;SDS011;6034;46.864;15.216;2023-07-31T07:23:41;4.83;;;2.90;;
1677;SDS011;6034;46.864;15.216;2023-07-31T07:26:08;2.50;;;1.93;;
1677;SDS011;6034;46.864;15.216;2023-07-31T07:28:36;3.50;;;2.17;;
1677;SDS011;6034;46.864;15.216;2023-07-31T07:31:04;4.63;;;2.00;;
1677;SDS011;6034;46.864;15.216;2023-07-31T07:33:31;2.20;;;1.60;;
1677;SDS011;6034;46.864;15.216;2023-07-31T07:35:59;3.87;;;1.97;;
1677;SDS011;6034;46.864;15.216;2023-07-31T07:38:27;4.10;;;2.30;;
1677;SDS011;6034;46.864;15.216;2023-07-31T07:40:54;2.27;;;1.80;;
1677;SDS011;6034;46.864;15.216;2023-07-31T07:43:21;4.40;;;1.73;;
1677;SDS011;6034;46.864;15.216;2023-07-31T07:45:50;2.77;;;2.30;;
1677;SDS011;6034;46.864;15.216;2023-07-31T07:48:18;3.10;;;2.03;;
1677;SDS011;6034;46.864;15.216;2023-07-31T07:50:45;3.07;;;1.77;;
1677;SDS011;6034;46.864;15.216;2023-07-31T07:53:12;2.77;;;1.90;;
1677;SDS011;6034;46.864;15.216;2023-07-31T07:55:40;3.57;;;2.00;;
1677;SDS011;6034;46.864;15.216;2023-07-31T07:58:08;3.47;;;2.20;;
1677;SDS011;6034;46.864;15.216;2023-07-31T08:00:35;2.90;;;2.20;;
1677;SDS011;6034;46.864;15.216;2023-07-31T08:03:04;2.57;;;2.00;;
1677;SDS011;6034;46.864;15.216;2023-07-31T08:05:32;2.90;;;2.00;;
1677;SDS011;6034;46.864;15.216;2023-07-31T08:08:00;3.90;;;2.13;;
1677;SDS011;6034;46.864;15.216;2023-07-31T08:10:27;2.33;;;2.07;;
1677;SDS011;6034;46.864;15.216;2023-07-31T08:12:55;3.00;;;2.10;;
1677;SDS011;6034;46.864;15.216;2023-07-31T08:15:22;2.87;;;2.33;;
1677;SDS011;6034;46.864;15.216;2023-07-31T08:17:49;3.10;;;1.97;;
1677;SDS011;6034;46.864;15.216;2023-07-31T08:20:18;17.67;;;4.90;;
1677;SDS011;6034;46.864;15.216;2023-07-31T08:22:45;3.50;;;2.67;;
1677;SDS011;6034;46.864;15.216;2023-07-31T08:25:13;2.00;;;1.70;;
1677;SDS011;6034;46.864;15.216;2023-07-31T08:27:42;3.27;;;2.60;;
1677;SDS011;6034;46.864;15.216;2023-07-31T08:30:11;2.50;;;2.00;;
1677;SDS011;6034;46.864;15.216;2023-07-31T08:32:39;3.33;;;2.00;;
1677;SDS011;6034;46.864;15.216;2023-07-31T08:35:07;2.87;;;2.47;;
1677;SDS011;6034;46.864;15.216;2023-07-31T08:37:38;5.73;;;3.00;;
1677;SDS011;6034;46.864;15.216;2023-07-31T08:40:06;3.20;;;2.27;;
1677;SDS011;6034;46.864;15.216;2023-07-31T08:42:40;2.90;;;2.10;;
1677;SDS011;6034;46.864;15.216;2023-07-31T08:45:12;3.03;;;1.80;;
1677;SDS011;6034;46.864;15.216;2023-07-31T08:47:41;4.43;;;2.27;;
1677;SDS011;6034;46.864;15.216;2023-07-31T08:50:12;2.70;;;2.10;;
1677;SDS011;6034;46.864;15.216;2023-07-31T08:52:41;4.43;;;2.33;;
1677;SDS011;6034;46.864;15.216;2023-07-31T08:55:09;2.63;;;2.33;;
1677;SDS011;6034;46.864;15.216;2023-07-31T08:57:37;2.13;;;1.70;;
1677;SDS011;6034;46.864;15.216;2023-07-31T09:00:06;2.33;;;1.90;;
1677;SDS011;6034;46.864;15.216;2023-07-31T09:02:38;5.10;;;3.57;;
1677;SDS011;6034;46.864;15.216;2023-07-31T09:05:11;4.00;;;2.40;;
1677;SDS011;6034;46.864;15.216;2023-07-31T09:07:39;3.10;;;2.30;;
1677;SDS011;6034;46.864;15.216;2023-07-31T09:10:11;3.37;;;2.60;;
1677;SDS011;6034;46.864;15.216;2023-07-31T09:12:39;5.37;;;3.13;;
1677;SDS011;6034;46.864;15.216;2023-07-31T09:15:18;2.67;;;2.43;;
1677;SDS011;6034;46.864;15.216;2023-07-31T09:17:46;4.03;;;2.60;;
1677;SDS011;6034;46.864;15.216;2023-07-31T09:20:14;2.90;;;2.27;;
1677;SDS011;6034;46.864;15.216;2023-07-31T09:22:44;2.53;;;2.00;;
1677;SDS011;6034;46.864;15.216;2023-07-31T09:25:15;3.07;;;2.40;;
1677;SDS011;6034;46.864;15.216;2023-07-31T09:27:47;4.90;;;3.07;;
1677;SDS011;6034;46.864;15.216;2023-07-31T09:30:15;2.90;;;1.93;;
1677;SDS011;6034;46.864;15.216;2023-07-31T09:32:43;2.43;;;2.23;;
1677;SDS011;6034;46.864;15.216;2023-07-31T09:35:18;3.00;;;2.40;;
1677;SDS011;6034;46.864;15.216;2023-07-31T09:37:57;3.33;;;2.60;;
1677;SDS011;6034;46.864;15.216;2023-07-31T09:40:29;2.20;;;2.00;;
1677;SDS011;6034;46.864;15.216;2023-07-31T09:42:58;2.67;;;2.20;;
1677;SDS011;6034;46.864;15.216;2023-07-31T09:45:26;4.03;;;2.30;;
1677;SDS011;6034;46.864;15.216;2023-07-31T09:47:54;2.73;;;2.17;;
1677;SDS011;6034;46.864;15.216;2023-07-31T09:50:22;2.87;;;2.40;;
1677;SDS011;6034;46.864;15.216;2023-07-31T09:52:52;2.67;;;2.03;;
1677;SDS011;6034;46.864;15.216;2023-07-31T09:55:19;2.23;;;1.90;;
1677;SDS011;6034;46.864;15.216;2023-07-31T09:57:47;2.50;;;1.90;;
1677;SDS011;6034;46.864;15.216;2023-07-31T10:00:16;2.70;;;1.63;;
1677;SDS011;6034;46.864;15.216;2023-07-31T10:02:47;2.97;;;2.43;;
1677;SDS011;6034;46.864;15.216;2023-07-31T10:05:19;3.20;;;2.10;;
1677;SDS011;6034;46.864;15.216;2023-07-31T10:07:49;2.17;;;1.80;;
1677;SDS011;6034;46.864;15.216;2023-07-31T10:10:20;2.80;;;2.23;;
1677;SDS011;6034;46.864;15.216;2023-07-31T10:12:49;2.60;;;2.03;;
1677;SDS011;6034;46.864;15.216;2023-07-31T10:15:16;3.10;;;1.97;;
1677;SDS011;6034;46.864;15.216;2023-07-31T10:17:44;2.67;;;1.90;;
1677;SDS011;6034;46.864;15.216;2023-07-31T10:20:14;2.77;;;2.10;;
1677;SDS011;6034;46.864;15.216;2023-07-31T10:22:43;3.90;;;2.30;;
1677;SDS011;6034;46.864;15.216;2023-07-31T10:25:13;2.67;;;2.20;;
1677;SDS011;6034;46.864;15.216;2023-07-31T10:27:42;2.87;;;2.23;;
1677;SDS011;6034;46.864;15.216;2023-07-31T10:30:11;2.90;;;2.03;;
1677;SDS011;6034;46.864;15.216;2023-07-31T10:32:41;4.27;;;2.90;;
1677;SDS011;6034;46.864;15.216;2023-07-31T10:35:10;3.17;;;2.50;;
1677;SDS011;6034;46.864;15.216;2023-07-31T10:37:39;3.00;;;2.50;;
1677;SDS011;6034;46.864;15.216;2023-07-31T10:40:10;3.07;;;2.20;;
1677;SDS011;6034;46.864;15.216;2023-07-31T10:42:46;3.10;;;2.33;;
1677;SDS011;6034;46.864;15.216;2023-07-31T10:45:23;3.40;;;1.97;;
1677;SDS011;6034;46.864;15.216;2023-07-31T10:47:58;2.67;;;2.10;;
1677;SDS011;6034;46.864;15.216;2023-07-31T10:50:27;2.93;;;1.83;;
1677;SDS011;6034;46.864;15.216;2023-07-31T10:52:57;2.90;;;2.23;;
1677;SDS011;6034;46.864;15.216;2023-07-31T10:55:29;3.50;;;3.10;;
1677;SDS011;6034;46.864;15.216;2023-07-31T10:58:05;2.87;;;2.43;;
1677;SDS011;6034;46.864;15.216;2023-07-31T11:00:33;3.07;;;2.23;;
1677;SDS011;6034;46.864;15.216;2023-07-31T11:03:04;3.10;;;2.10;;
1677;SDS011;6034;46.864;15.216;2023-07-31T11:08:28;2.87;;;2.30;;
1677;SDS011;6034;46.864;15.216;2023-07-31T11:11:05;3.10;;;2.20;;
1677;SDS011;6034;46.864;15.216;2023-07-31T11:13:39;4.10;;;2.63;;
1677;SDS011;6034;46.864;15.216;2023-07-31T11:16:08;2.30;;;2.00;;
1677;SDS011;6034;46.864;15.216;2023-07-31T11:18:37;2.90;;;2.27;;
1677;SDS011;6034;46.864;15.216;2023-07-31T11:21:06;2.73;;;2.40;;
1677;SDS011;6034;46.864;15.216;2023-07-31T11:23:32;2.60;;;2.17;;
1677;SDS011;6034;46.864;15.216;2023-07-31T11:26:00;3.33;;;2.20;;
1677;SDS011;6034;46.864;15.216;2023-07-31T11:28:31;2.20;;;2.00;;
1677;SDS011;6034;46.864;15.216;2023-07-31T11:31:01;6.13;;;2.20;;
1677;SDS011;6034;46.864;15.216;2023-07-31T11:33:29;2.50;;;2.10;;
1677;SDS011;6034;46.864;15.216;2023-07-31T11:35:57;2.50;;;1.97;;
1677;SDS011;6034;46.864;15.216;2023-07-31T11:38:24;3.07;;;2.40;;
1677;SDS011;6034;46.864;15.216;2023-07-31T11:40:53;2.70;;;2.30;;
1677;SDS011;6034;46.864;15.216;2023-07-31T11:43:21;2.90;;;2.30;;
1677;SDS011;6034;46.864;15.216;2023-07-31T11:45:49;2.60;;;2.40;;
1677;SDS011;6034;46.864;15.216;2023-07-31T11:48:23;3.60;;;2.53;;
1677;SDS011;6034;46.864;15.216;2023-07-31T11:50:52;4.33;;;2.43;;
1677;SDS011;6034;46.864;15.216;2023-07-31T11:53:21;3.27;;;2.30;;
1677;SDS011;6034;46.864;15.216;2023-07-31T11:55:52;3.40;;;2.87;;
1677;SDS011;6034;46.864;15.216;2023-07-31T11:58:21;2.60;;;2.40;;
1677;SDS011;6034;46.864;15.216;2023-07-31T12:00:49;3.10;;;2.80;;
1677;SDS011;6034;46.864;15.216;2023-07-31T12:03:17;3.87;;;2.30;;
1677;SDS011;6034;46.864;15.216;2023-07-31T12:05:48;4.07;;;2.70;;
1677;SDS011;6034;46.864;15.216;2023-07-31T12:08:15;2.57;;;2.37;;
1677;SDS011;6034;46.864;15.216;2023-07-31T12:10:42;2.97;;;2.50;;
1677;SDS011;6034;46.864;15.216;2023-07-31T12:13:12;2.80;;;2.13;;
1677;SDS011;6034;46.864;15.216;2023-07-31T12:15:47;4.77;;;3.17;;
1677;SDS011;6034;46.864;15.216;2023-07-31T12:18:16;3.53;;;2.80;;
1677;SDS011;6034;46.864;15.216;2023-07-31T12:20:48;3.40;;;2.07;;
1677;SDS011;6034;46.864;15.216;2023-07-31T12:23:21;4.97;;;3.03;;
1677;SDS011;6034;46.864;15.216;2023-07-31T12:25:59;4.33;;;2.47;;
1677;SDS011;6034;46.864;15.216;2023-07-31T12:28:27;3.70;;;2.40;;
1677;SDS011;6034;46.864;15.216;2023-07-31T12:30:56;4.33;;;3.03;;
1677;SDS011;6034;46.864;15.216;2023-07-31T12:33:29;2.83;;;2.40;;
1677;SDS011;6034;46.864;15.216;2023-07-31T12:35:59;4.30;;;2.30;;
1677;SDS011;6034;46.864;15.216;2023-07-31T12:38:27;2.73;;;2.17;;
1677;SDS011;6034;46.864;15.216;2023-07-31T12:40:55;2.57;;;1.83;;
1677;SDS011;6034;46.864;15.216;2023-07-31T12:43:22;3.80;;;2.70;;
1677;SDS011;6034;46.864;15.216;2023-07-31T12:45:50;3.10;;;2.33;;
1677;SDS011;6034;46.864;15.216;2023-07-31T12:48:17;2.93;;;2.57;;
1677;SDS011;6034;46.864;15.216;2023-07-31T12:50:44;3.13;;;2.80;;
1677;SDS011;6034;46.864;15.216;2023-07-31T12:53:14;2.90;;;2.37;;
1677;SDS011;6034;46.864;15.216;2023-07-31T12:55:42;2.83;;;2.10;;
1677;SDS011;6034;46.864;15.216;2023-07-31T12:58:09;3.40;;;2.27;;
1677;SDS011;6034;46.864;15.216;2023-07-31T13:00:37;3.50;;;2.67;;
1677;SDS011;6034;46.864;15.216;2023-07-31T13:03:04;2.73;;;2.40;;
1677;SDS011;6034;46.864;15.216;2023-07-31T13:05:31;3.60;;;3.00;;
1677;SDS011;6034;46.864;15.216;2023-07-31T13:07:59;3.60;;;2.60;;
1677;SDS011;6034;46.864;15.216;2023-07-31T13:10:27;3.80;;;2.63;;
1677;SDS011;6034;46.864;15.216;2023-07-31T13:12:55;2.83;;;2.57;;
1677;SDS011;6034;46.864;15.216;2023-07-31T13:15:22;3.90;;;2.40;;
1677;SDS011;6034;46.864;15.216;2023-07-31T13:17:49;3.63;;;2.50;;
1677;SDS011;6034;46.864;15.216;2023-07-31T13:20:17;2.70;;;2.40;;
1677;SDS011;6034;46.864;15.216;2023-07-31T13:22:44;4.00;;;3.50;;
1677;SDS011;6034;46.864;15.216;2023-07-31T13:25:11;3.30;;;3.00;;
1677;SDS011;6034;46.864;15.216;2023-07-31T13:27:40;3.17;;;2.87;;
1677;SDS011;6034;46.864;15.216;2023-07-31T13:30:07;2.87;;;2.57;;
1677;SDS011;6034;46.864;15.216;2023-07-31T13:32:35;4.40;;;2.90;;
1677;SDS011;6034;46.864;15.216;2023-07-31T13:35:04;3.63;;;2.10;;
1677;SDS011;6034;46.864;15.216;2023-07-31T13:37:31;3.57;;;2.93;;
1677;SDS011;6034;46.864;15.216;2023-07-31T13:39:59;3.37;;;2.50;;
1677;SDS011;6034;46.864;15.216;2023-07-31T13:42:26;2.50;;;2.17;;
1677;SDS011;6034;46.864;15.216;2023-07-31T13:44:55;2.70;;;2.10;;
1677;SDS011;6034;46.864;15.216;2023-07-31T13:47:23;2.20;;;1.97;;
1677;SDS011;6034;46.864;15.216;2023-07-31T13:49:50;3.63;;;2.17;;
1677;SDS011;6034;46.864;15.216;2023-07-31T13:52:18;2.53;;;2.30;;
1677;SDS011;6034;46.864;15.216;2023-07-31T13:54:45;2.50;;;2.30;;
1677;SDS011;6034;46.864;15.216;2023-07-31T13:57:13;3.50;;;2.43;;
1677;SDS011;6034;46.864;15.216;2023-07-31T13:59:41;3.40;;;2.50;;
1677;SDS011;6034;46.864;15.216;2023-07-31T14:02:10;4.60;;;2.60;;
1677;SDS011;6034;46.864;15.216;2023-07-31T14:04:37;3.57;;;2.97;;
1677;SDS011;6034;46.864;15.216;2023-07-31T14:07:08;3.27;;;2.87;;
1677;SDS011;6034;46.864;15.216;2023-07-31T14:09:44;2.90;;;2.47;;
1677;SDS011;6034;46.864;15.216;2023-07-31T14:12:12;2.70;;;2.20;;
1677;SDS011;6034;46.864;15.216;2023-07-31T14:14:40;4.00;;;2.50;;
1677;SDS011;6034;46.864;15.216;2023-07-31T14:17:07;3.47;;;2.53;;
1677;SDS011;6034;46.864;15.216;2023-07-31T14:19:36;2.87;;;2.33;;
1677;SDS011;6034;46.864;15.216;2023-07-31T14:22:04;5.10;;;2.70;;
1677;SDS011;6034;46.864;15.216;2023-07-31T14:24:31;2.17;;;1.90;;
1677;SDS011;6034;46.864;15.216;2023-07-31T14:26:59;2.97;;;2.30;;
1677;SDS011;6034;46.864;15.216;2023-07-31T14:29:26;4.00;;;3.07;;
1677;SDS011;6034;46.864;15.216;2023-07-31T14:31:53;3.83;;;2.40;;
1677;SDS011;6034;46.864;15.216;2023-07-31T14:34:22;3.40;;;2.50;;
1677;SDS011;6034;46.864;15.216;2023-07-31T14:36:49;2.93;;;2.40;;
1677;SDS011;6034;46.864;15.216;2023-07-31T14:39:17;3.67;;;2.57;;
1677;SDS011;6034;46.864;15.216;2023-07-31T14:41:44;3.60;;;2.73;;
1677;SDS011;6034;46.864;15.216;2023-07-31T14:44:11;3.20;;;2.80;;
1677;SDS011;6034;46.864;15.216;2023-07-31T14:46:38;2.93;;;2.40;;
1677;SDS011;6034;46.864;15.216;2023-07-31T14:49:06;2.97;;;2.67;;
1677;SDS011;6034;46.864;15.216;2023-07-31T14:51:34;3.57;;;3.13;;
1677;SDS011;6034;46.864;15.216;2023-07-31T14:54:01;4.27;;;2.87;;
1677;SDS011;6034;46.864;15.216;2023-07-31T14:56:29;3.73;;;2.70;;
1677;SDS011;6034;46.864;15.216;2023-07-31T14:58:56;2.80;;;2.37;;
1677;SDS011;6034;46.864;15.216;2023-07-31T15:01:24;3.77;;;2.37;;
1677;SDS011;6034;46.864;15.216;2023-07-31T15:03:51;3.77;;;2.70;;
1677;SDS011;6034;46.864;15.216;2023-07-31T15:06:18;2.40;;;2.10;;
1677;SDS011;6034;46.864;15.216;2023-07-31T15:08:47;2.80;;;2.43;;
1677;SDS011;6034;46.864;15.216;2023-07-31T15:11:14;3.13;;;2.60;;
1677;SDS011;6034;46.864;15.216;2023-07-31T15:13:43;3.30;;;2.30;;
1677;SDS011;6034;46.864;15.216;2023-07-31T15:16:10;2.70;;;2.33;;
1677;SDS011;6034;46.864;15.216;2023-07-31T15:18:38;3.57;;;2.80;;
1677;SDS011;6034;46.864;15.216;2023-07-31T15:21:05;3.50;;;2.67;;
1677;SDS011;6034;46.864;15.216;2023-07-31T15:23:34;6.27;;;2.33;;
1677;SDS011;6034;46.864;15.216;2023-07-31T15:26:05;3.60;;;2.70;;
1677;SDS011;6034;46.864;15.216;2023-07-31T15:28:32;4.40;;;2.87;;
1677;SDS011;6034;46.864;15.216;2023-07-31T15:31:02;2.77;;;2.23;;
1677;SDS011;6034;46.864;15.216;2023-07-31T15:33:29;3.70;;;2.57;;
1677;SDS011;6034;46.864;15.216;2023-07-31T15:35:57;3.80;;;2.33;;
1677;SDS011;6034;46.864;15.216;2023-07-31T15:38:24;3.17;;;2.80;;
1677;SDS011;6034;46.864;15.216;2023-07-31T15:40:51;4.03;;;2.70;;
1677;SDS011;6034;46.864;15.216;2023-07-31T15:43:20;4.70;;;2.93;;
1677;SDS011;6034;46.864;15.216;2023-07-31T15:45:48;4.23;;;2.47;;
1677;SDS011;6034;46.864;15.216;2023-07-31T15:48:15;2.73;;;2.43;;
1677;SDS011;6034;46.864;15.216;2023-07-31T15:50:42;2.80;;;2.50;;
1677;SDS011;6034;46.864;15.216;2023-07-31T15:53:10;3.47;;;2.60;;
1677;SDS011;6034;46.864;15.216;2023-07-31T15:55:37;6.23;;;3.10;;
1677;SDS011;6034;46.864;15.216;2023-07-31T15:58:04;5.43;;;3.20;;
1677;SDS011;6034;46.864;15.216;2023-07-31T16:00:33;5.33;;;3.33;;
1677;SDS011;6034;46.864;15.216;2023-07-31T16:03:00;3.57;;;2.90;;
1677;SDS011;6034;46.864;15.216;2023-07-31T16:05:28;4.30;;;2.27;;
1677;SDS011;6034;46.864;15.216;2023-07-31T16:07:55;3.00;;;2.67;;
1677;SDS011;6034;46.864;15.216;2023-07-31T16:10:22;3.10;;;2.80;;
1677;SDS011;6034;46.864;15.216;2023-07-31T16:12:49;3.40;;;2.50;;
1677;SDS011;6034;46.864;15.216;2023-07-31T16:15:17;2.87;;;2.33;;
1677;SDS011;6034;46.864;15.216;2023-07-31T16:17:46;3.07;;;2.70;;
1677;SDS011;6034;46.864;15.216;2023-07-31T16:20:13;3.23;;;2.83;;
1677;SDS011;6034;46.864;15.216;2023-07-31T16:22:40;3.20;;;2.50;;
1677;SDS011;6034;46.864;15.216;2023-07-31T16:25:09;3.07;;;2.30;;
1677;SDS011;6034;46.864;15.216;2023-07-31T16:27:36;6.03;;;3.07;;
1677;SDS011;6034;46.864;15.216;2023-07-31T16:30:04;3.53;;;2.70;;
1677;SDS011;6034;46.864;15.216;2023-07-31T16:32:32;4.73;;;2.93;;
1677;SDS011;6034;46.864;15.216;2023-07-31T16:35:01;3.90;;;2.70;;
1677;SDS011;6034;46.864;15.216;2023-07-31T16:37:28;2.80;;;2.33;;
1677;SDS011;6034;46.864;15.216;2023-07-31T16:39:56;4.00;;;2.67;;
1677;SDS011;6034;46.864;15.216;2023-07-31T16:42:23;3.27;;;2.70;;
1677;SDS011;6034;46.864;15.216;2023-07-31T16:44:50;2.90;;;2.60;;
1677;SDS011;6034;46.864;15.216;2023-07-31T16:47:17;2.93;;;2.50;;
1677;SDS011;6034;46.864;15.216;2023-07-31T16:49:45;4.10;;;2.60;;
1677;SDS011;6034;46.864;15.216;2023-07-31T16:52:13;4.67;;;2.53;;
1677;SDS011;6034;46.864;15.216;2023-07-31T16:54:41;3.10;;;2.40;;
1677;SDS011;6034;46.864;15.216;2023-07-31T16:57:08;2.43;;;2.23;;
1677;SDS011;6034;46.864;15.216;2023-07-31T16:59:35;3.07;;;2.77;;
1677;SDS011;6034;46.864;15.216;2023-07-31T17:02:03;2.73;;;2.47;;
1677;SDS011;6034;46.864;15.216;2023-07-31T17:04:31;3.30;;;2.90;;
1677;SDS011;6034;46.864;15.216;2023-07-31T17:06:58;6.17;;;3.03;;
1677;SDS011;6034;46.864;15.216;2023-07-31T17:09:27;11.00;;;3.60;;
1677;SDS011;6034;46.864;15.216;2023-07-31T17:11:54;3.43;;;3.10;;
1677;SDS011;6034;46.864;15.216;2023-07-31T17:14:22;2.80;;;2.43;;
1677;SDS011;6034;46.864;15.216;2023-07-31T17:16:49;3.00;;;2.37;;
1677;SDS011;6034;46.864;15.216;2023-07-31T17:19:16;2.83;;;2.43;;
1677;SDS011;6034;46.864;15.216;2023-07-31T17:21:44;3.10;;;2.70;;
1677;SDS011;6034;46.864;15.216;2023-07-31T17:24:11;3.43;;;3.13;;
1677;SDS011;6034;46.864;15.216;2023-07-31T17:26:40;2.80;;;2.53;;
1677;SDS011;6034;46.864;15.216;2023-07-31T17:29:10;3.33;;;2.70;;
1677;SDS011;6034;46.864;15.216;2023-07-31T17:31:42;6.20;;;4.20;;
1677;SDS011;6034;46.864;15.216;2023-07-31T17:34:11;3.30;;;2.47;;
1677;SDS011;6034;46.864;15.216;2023-07-31T17:36:39;2.77;;;2.53;;
1677;SDS011;6034;46.864;15.216;2023-07-31T17:39:07;3.00;;;2.70;;
1677;SDS011;6034;46.864;15.216;2023-07-31T17:41:35;3.93;;;2.80;;
1677;SDS011;6034;46.864;15.216;2023-07-31T17:44:05;3.00;;;2.70;;
1677;SDS011;6034;46.864;15.216;2023-07-31T17:46:33;3.30;;;3.00;;
1677;SDS011;6034;46.864;15.216;2023-07-31T17:49:01;4.77;;;2.80;;
1677;SDS011;6034;46.864;15.216;2023-07-31T17:51:30;3.30;;;2.83;;
1677;SDS011;6034;46.864;15.216;2023-07-31T17:54:01;6.53;;;3.40;;
1677;SDS011;6034;46.864;15.216;2023-07-31T17:56:30;3.23;;;2.50;;
1677;SDS011;6034;46.864;15.216;2023-07-31T17:59:03;4.53;;;2.60;;
1677;SDS011;6034;46.864;15.216;2023-07-31T18:01:33;3.43;;;2.80;;
1677;SDS011;6034;46.864;15.216;2023-07-31T18:04:01;3.20;;;2.10;;
1677;SDS011;6034;46.864;15.216;2023-07-31T18:06:31;5.17;;;3.20;;
1677;SDS011;6034;46.864;15.216;2023-07-31T18:09:00;3.67;;;2.90;;
1677;SDS011;6034;46.864;15.216;2023-07-31T18:11:28;3.73;;;3.43;;
1677;SDS011;6034;46.864;15.216;2023-07-31T18:13:57;3.97;;;3.57;;
1677;SDS011;6034;46.864;15.216;2023-07-31T18:16:27;4.70;;;4.30;;
1677;SDS011;6034;46.864;15.216;2023-07-31T18:18:55;4.07;;;3.60;;
1677;SDS011;6034;46.864;15.216;2023-07-31T18:21:23;3.50;;;3.20;;
1677;SDS011;6034;46.864;15.216;2023-07-31T18:23:57;3.63;;;3.33;;
1677;SDS011;6034;46.864;15.216;2023-07-31T18:26:29;3.77;;;3.47;;
1677;SDS011;6034;46.864;15.216;2023-07-31T18:28:58;7.53;;;5.90;;
1677;SDS011;6034;46.864;15.216;2023-07-31T18:31:28;8.53;;;7.73;;
1677;SDS011;6034;46.864;15.216;2023-07-31T18:33:57;10.03;;;9.13;;
1677;SDS011;6034;46.864;15.216;2023-07-31T18:36:25;8.30;;;7.43;;
1677;SDS011;6034;46.864;15.216;2023-07-31T18:38:53;12.17;;;10.53;;
1677;SDS011;6034;46.864;15.216;2023-07-31T18:41:21;11.77;;;10.67;;
1677;SDS011;6034;46.864;15.216;2023-07-31T18:43:49;6.00;;;5.50;;
1677;SDS011;6034;46.864;15.216;2023-07-31T18:46:17;5.80;;;5.20;;
1677;SDS011;6034;46.864;15.216;2023-07-31T18:48:47;3.70;;;3.40;;
1677;SDS011;6034;46.864;15.216;2023-07-31T18:51:15;2.87;;;2.57;;
1677;SDS011;6034;46.864;15.216;2023-07-31T18:53:43;3.30;;;2.63;;
1677;SDS011;6034;46.864;15.216;2023-07-31T18:56:12;4.10;;;3.10;;
1677;SDS011;6034;46.864;15.216;2023-07-31T18:58:40;3.37;;;3.00;;
1677;SDS011;6034;46.864;15.216;2023-07-31T19:01:08;5.50;;;5.00;;
1677;SDS011;6034;46.864;15.216;2023-07-31T19:03:36;4.93;;;4.43;;
1677;SDS011;6034;46.864;15.216;2023-07-31T19:06:07;5.70;;;4.20;;
1677;SDS011;6034;46.864;15.216;2023-07-31T19:08:35;3.80;;;3.50;;
1677;SDS011;6034;46.864;15.216;2023-07-31T19:11:03;4.33;;;3.93;;
1677;SDS011;6034;46.864;15.216;2023-07-31T19:13:32;2.70;;;2.50;;
1677;SDS011;6034;46.864;15.216;2023-07-31T19:16:00;4.77;;;4.37;;
1677;SDS011;6034;46.864;15.216;2023-07-31T19:18:32;3.63;;;3.00;;
1677;SDS011;6034;46.864;15.216;2023-07-31T19:20:59;6.13;;;4.27;;
1677;SDS011;6034;46.864;15.216;2023-07-31T19:23:30;3.33;;;2.77;;
1677;SDS011;6034;46.864;15.216;2023-07-31T19:25:57;3.40;;;3.10;;
1677;SDS011;6034;46.864;15.216;2023-07-31T19:28:25;3.53;;;3.23;;
1677;SDS011;6034;46.864;15.216;2023-07-31T19:30:53;4.07;;;3.50;;
1677;SDS011;6034;46.864;15.216;2023-07-31T19:33:22;8.70;;;7.43;;
1677;SDS011;6034;46.864;15.216;2023-07-31T19:35:53;7.37;;;6.50;;
1677;SDS011;6034;46.864;15.216;2023-07-31T19:38:22;3.50;;;3.20;;
1677;SDS011;6034;46.864;15.216;2023-07-31T19:40:52;5.40;;;3.60;;
1677;SDS011;6034;46.864;15.216;2023-07-31T19:43:20;3.33;;;2.70;;
1677;SDS011;6034;46.864;15.216;2023-07-31T19:45:48;5.03;;;3.30;;